sensor_id;sensor_type;location;lat;lon;timestamp;P1;durP1;ratioP1;P2;durP2;ratioP2
68653;SDS011;55636;51.108;13.622;2023-08-07T00:00:38;2.45;;;2.25;;
68653;SDS011;55636;51.108;13.622;2023-08-07T00:01:41;2.40;;;2.13;;
68653;SDS011;55636;51.108;13.622;2023-08-07T00:02:43;3.25;;;2.40;;
68653;SDS011;55636;51.108;13.622;2023-08-07T00:03:46;2.60;;;2.20;;
68653;SDS011;55636;51.108;13.622;2023-08-07T00:04:49;2.50;;;2.30;;
68653;SDS011;55636;51.108;13.622;2023-08-07T00:05:51;2.53;;;2.33;;
68653;SDS011;55636;51.108;13.622;2023-08-07T00:06:54;2.30;;;2.20;;
68653;SDS011;55636;51.108;13.622;2023-08-07T00:07:56;3.42;;;2.47;;
68653;SDS011;55636;51.108;13.622;2023-08-07T00:08:59;2.75;;;2.20;;
68653;SDS011;55636;51.108;13.622;2023-08-07T00:10:01;2.20;;;2.10;;
68653;SDS011;55636;51.108;13.622;2023-08-07T00:11:06;2.42;;;2.22;;
68653;SDS011;55636;51.108;13.622;2023-08-07T00:12:09;2.55;;;2.28;;
68653;SDS011;55636;51.108;13.622;2023-08-07T00:13:11;2.90;;;2.63;;
68653;SDS011;55636;51.108;13.622;2023-08-07T00:14:14;2.10;;;2.00;;
68653;SDS011;55636;51.108;13.622;2023-08-07T00:15:16;2.70;;;2.50;;
68653;SDS011;55636;51.108;13.622;2023-08-07T00:16:18;2.60;;;2.30;;
68653;SDS011;55636;51.108;13.622;2023-08-07T00:17:21;2.30;;;2.20;;
68653;SDS011;55636;51.108;13.622;2023-08-07T00:18:23;2.95;;;2.00;;
68653;SDS011;55636;51.108;13.622;2023-08-07T00:19:26;2.83;;;2.50;;
68653;SDS011;55636;51.108;13.622;2023-08-07T00:20:28;2.30;;;2.20;;
68653;SDS011;55636;51.108;13.622;2023-08-07T00:21:31;2.40;;;2.20;;
68653;SDS011;55636;51.108;13.622;2023-08-07T00:22:33;2.53;;;2.33;;
68653;SDS011;55636;51.108;13.622;2023-08-07T00:23:36;2.38;;;2.28;;
68653;SDS011;55636;51.108;13.622;2023-08-07T00:24:38;2.25;;;2.15;;
68653;SDS011;55636;51.108;13.622;2023-08-07T00:25:41;2.40;;;2.17;;
68653;SDS011;55636;51.108;13.622;2023-08-07T00:26:43;2.10;;;2.00;;
68653;SDS011;55636;51.108;13.622;2023-08-07T00:27:46;2.15;;;1.95;;
68653;SDS011;55636;51.108;13.622;2023-08-07T00:28:48;2.00;;;1.90;;
68653;SDS011;55636;51.108;13.622;2023-08-07T00:29:51;2.78;;;2.15;;
68653;SDS011;55636;51.108;13.622;2023-08-07T00:30:53;2.00;;;1.90;;
68653;SDS011;55636;51.108;13.622;2023-08-07T00:31:56;2.55;;;2.10;;
68653;SDS011;55636;51.108;13.622;2023-08-07T00:32:59;2.33;;;2.10;;
68653;SDS011;55636;51.108;13.622;2023-08-07T00:34:01;2.28;;;1.90;;
68653;SDS011;55636;51.108;13.622;2023-08-07T00:35:04;2.00;;;1.90;;
68653;SDS011;55636;51.108;13.622;2023-08-07T00:36:08;2.13;;;1.90;;
68653;SDS011;55636;51.108;13.622;2023-08-07T00:37:10;2.25;;;2.10;;
68653;SDS011;55636;51.108;13.622;2023-08-07T00:38:12;2.10;;;1.90;;
68653;SDS011;55636;51.108;13.622;2023-08-07T00:39:15;2.20;;;2.00;;
68653;SDS011;55636;51.108;13.622;2023-08-07T00:40:17;2.20;;;2.00;;
68653;SDS011;55636;51.108;13.622;2023-08-07T00:41:20;1.95;;;1.83;;
68653;SDS011;55636;51.108;13.622;2023-08-07T00:42:22;2.22;;;2.05;;
68653;SDS011;55636;51.108;13.622;2023-08-07T00:43:25;2.75;;;2.10;;
68653;SDS011;55636;51.108;13.622;2023-08-07T00:44:27;2.47;;;2.28;;
68653;SDS011;55636;51.108;13.622;2023-08-07T00:45:32;2.13;;;1.92;;
68653;SDS011;55636;51.108;13.622;2023-08-07T00:46:38;2.40;;;2.20;;
68653;SDS011;55636;51.108;13.622;2023-08-07T00:47:41;2.53;;;2.33;;
68653;SDS011;55636;51.108;13.622;2023-08-07T00:48:44;2.30;;;2.10;;
68653;SDS011;55636;51.108;13.622;2023-08-07T00:49:48;3.85;;;1.95;;
68653;SDS011;55636;51.108;13.622;2023-08-07T00:50:50;2.00;;;1.90;;
68653;SDS011;55636;51.108;13.622;2023-08-07T00:51:53;3.00;;;2.05;;
68653;SDS011;55636;51.108;13.622;2023-08-07T00:52:55;2.55;;;1.90;;
68653;SDS011;55636;51.108;13.622;2023-08-07T00:53:59;3.95;;;2.08;;
68653;SDS011;55636;51.108;13.622;2023-08-07T00:55:05;2.38;;;2.17;;
68653;SDS011;55636;51.108;13.622;2023-08-07T00:56:08;2.25;;;2.15;;
68653;SDS011;55636;51.108;13.622;2023-08-07T00:57:11;5.95;;;2.30;;
68653;SDS011;55636;51.108;13.622;2023-08-07T00:58:14;2.20;;;2.00;;
68653;SDS011;55636;51.108;13.622;2023-08-07T00:59:16;2.10;;;1.90;;
68653;SDS011;55636;51.108;13.622;2023-08-07T01:00:20;3.13;;;2.20;;
68653;SDS011;55636;51.108;13.622;2023-08-07T01:01:23;2.40;;;2.20;;
68653;SDS011;55636;51.108;13.622;2023-08-07T01:02:26;2.38;;;2.17;;
68653;SDS011;55636;51.108;13.622;2023-08-07T01:03:29;2.10;;;2.00;;
68653;SDS011;55636;51.108;13.622;2023-08-07T01:04:32;2.50;;;2.00;;
68653;SDS011;55636;51.108;13.622;2023-08-07T01:05:34;2.22;;;2.03;;
68653;SDS011;55636;51.108;13.622;2023-08-07T01:06:37;2.45;;;2.20;;
68653;SDS011;55636;51.108;13.622;2023-08-07T01:07:41;2.63;;;1.90;;
68653;SDS011;55636;51.108;13.622;2023-08-07T01:08:43;2.75;;;2.00;;
68653;SDS011;55636;51.108;13.622;2023-08-07T01:09:47;2.40;;;2.10;;
68653;SDS011;55636;51.108;13.622;2023-08-07T01:11:03;2.15;;;2.00;;
68653;SDS011;55636;51.108;13.622;2023-08-07T01:12:20;2.65;;;2.10;;
68653;SDS011;55636;51.108;13.622;2023-08-07T01:13:32;1.90;;;1.80;;
68653;SDS011;55636;51.108;13.622;2023-08-07T01:14:47;2.20;;;2.00;;
68653;SDS011;55636;51.108;13.622;2023-08-07T01:15:55;2.63;;;2.00;;
68653;SDS011;55636;51.108;13.622;2023-08-07T01:17:10;1.80;;;1.70;;
68653;SDS011;55636;51.108;13.622;2023-08-07T01:18:16;2.10;;;1.90;;
68653;SDS011;55636;51.108;13.622;2023-08-07T01:19:26;1.90;;;1.80;;
68653;SDS011;55636;51.108;13.622;2023-08-07T01:20:30;2.00;;;1.90;;
68653;SDS011;55636;51.108;13.622;2023-08-07T01:21:33;2.47;;;1.90;;
68653;SDS011;55636;51.108;13.622;2023-08-07T01:22:35;1.85;;;1.70;;
68653;SDS011;55636;51.108;13.622;2023-08-07T01:23:38;2.33;;;1.88;;
68653;SDS011;55636;51.108;13.622;2023-08-07T01:24:41;2.05;;;1.85;;
68653;SDS011;55636;51.108;13.622;2023-08-07T01:25:45;2.20;;;1.88;;
68653;SDS011;55636;51.108;13.622;2023-08-07T01:26:48;2.08;;;1.90;;
68653;SDS011;55636;51.108;13.622;2023-08-07T01:28:00;2.10;;;1.90;;
68653;SDS011;55636;51.108;13.622;2023-08-07T01:29:12;1.95;;;1.75;;
68653;SDS011;55636;51.108;13.622;2023-08-07T01:30:33;2.10;;;1.90;;
68653;SDS011;55636;51.108;13.622;2023-08-07T01:31:40;2.05;;;1.92;;
68653;SDS011;55636;51.108;13.622;2023-08-07T01:34:19;2.15;;;1.95;;
68653;SDS011;55636;51.108;13.622;2023-08-07T01:35:25;2.30;;;1.77;;
68653;SDS011;55636;51.108;13.622;2023-08-07T01:36:31;2.33;;;2.00;;
68653;SDS011;55636;51.108;13.622;2023-08-07T01:37:35;2.40;;;1.90;;
68653;SDS011;55636;51.108;13.622;2023-08-07T01:38:41;2.00;;;1.90;;
68653;SDS011;55636;51.108;13.622;2023-08-07T01:39:44;2.58;;;1.73;;
68653;SDS011;55636;51.108;13.622;2023-08-07T01:40:49;2.00;;;1.90;;
68653;SDS011;55636;51.108;13.622;2023-08-07T01:41:53;3.28;;;1.88;;
68653;SDS011;55636;51.108;13.622;2023-08-07T01:42:57;2.50;;;1.95;;
68653;SDS011;55636;51.108;13.622;2023-08-07T01:44:00;1.85;;;1.75;;
68653;SDS011;55636;51.108;13.622;2023-08-07T01:45:04;2.08;;;1.85;;
68653;SDS011;55636;51.108;13.622;2023-08-07T01:46:07;2.30;;;2.10;;
68653;SDS011;55636;51.108;13.622;2023-08-07T01:47:11;2.13;;;1.90;;
68653;SDS011;55636;51.108;13.622;2023-08-07T01:48:14;1.98;;;1.88;;
68653;SDS011;55636;51.108;13.622;2023-08-07T01:49:16;1.80;;;1.67;;
68653;SDS011;55636;51.108;13.622;2023-08-07T01:50:19;2.28;;;2.05;;
68653;SDS011;55636;51.108;13.622;2023-08-07T01:51:22;2.13;;;2.00;;
68653;SDS011;55636;51.108;13.622;2023-08-07T01:52:25;2.30;;;2.03;;
68653;SDS011;55636;51.108;13.622;2023-08-07T01:53:28;3.67;;;2.17;;
68653;SDS011;55636;51.108;13.622;2023-08-07T01:54:30;2.97;;;2.00;;
68653;SDS011;55636;51.108;13.622;2023-08-07T01:55:33;2.10;;;2.00;;
68653;SDS011;55636;51.108;13.622;2023-08-07T01:56:35;2.38;;;2.17;;
68653;SDS011;55636;51.108;13.622;2023-08-07T01:57:38;2.40;;;2.20;;
68653;SDS011;55636;51.108;13.622;2023-08-07T01:58:40;2.08;;;1.98;;
68653;SDS011;55636;51.108;13.622;2023-08-07T01:59:43;2.50;;;2.30;;
68653;SDS011;55636;51.108;13.622;2023-08-07T02:00:46;2.90;;;2.40;;
68653;SDS011;55636;51.108;13.622;2023-08-07T02:01:49;3.15;;;2.28;;
68653;SDS011;55636;51.108;13.622;2023-08-07T02:02:51;2.28;;;2.08;;
68653;SDS011;55636;51.108;13.622;2023-08-07T02:03:54;3.22;;;2.55;;
68653;SDS011;55636;51.108;13.622;2023-08-07T02:04:57;2.65;;;2.40;;
68653;SDS011;55636;51.108;13.622;2023-08-07T02:05:59;4.07;;;2.40;;
68653;SDS011;55636;51.108;13.622;2023-08-07T02:07:03;3.47;;;2.40;;
68653;SDS011;55636;51.108;13.622;2023-08-07T02:08:05;2.90;;;2.58;;
68653;SDS011;55636;51.108;13.622;2023-08-07T02:09:08;2.67;;;2.30;;
68653;SDS011;55636;51.108;13.622;2023-08-07T02:10:10;3.75;;;2.50;;
68653;SDS011;55636;51.108;13.622;2023-08-07T02:11:12;2.60;;;2.40;;
68653;SDS011;55636;51.108;13.622;2023-08-07T02:12:15;2.45;;;2.35;;
68653;SDS011;55636;51.108;13.622;2023-08-07T02:13:17;2.45;;;2.30;;
68653;SDS011;55636;51.108;13.622;2023-08-07T02:14:20;2.70;;;2.50;;
68653;SDS011;55636;51.108;13.622;2023-08-07T02:15:22;2.60;;;2.38;;
68653;SDS011;55636;51.108;13.622;2023-08-07T02:16:25;2.70;;;2.50;;
68653;SDS011;55636;51.108;13.622;2023-08-07T02:17:28;2.70;;;2.50;;
68653;SDS011;55636;51.108;13.622;2023-08-07T02:18:32;2.72;;;2.20;;
68653;SDS011;55636;51.108;13.622;2023-08-07T02:19:34;3.05;;;2.63;;
68653;SDS011;55636;51.108;13.622;2023-08-07T02:20:37;2.60;;;2.40;;
68653;SDS011;55636;51.108;13.622;2023-08-07T02:21:39;2.47;;;2.22;;
68653;SDS011;55636;51.108;13.622;2023-08-07T02:22:41;2.67;;;2.47;;
68653;SDS011;55636;51.108;13.622;2023-08-07T02:23:44;2.53;;;2.33;;
68653;SDS011;55636;51.108;13.622;2023-08-07T02:24:46;2.78;;;2.30;;
68653;SDS011;55636;51.108;13.622;2023-08-07T02:25:50;2.50;;;2.30;;
68653;SDS011;55636;51.108;13.622;2023-08-07T02:26:54;2.90;;;2.60;;
68653;SDS011;55636;51.108;13.622;2023-08-07T02:27:56;2.53;;;2.33;;
68653;SDS011;55636;51.108;13.622;2023-08-07T02:28:59;2.90;;;2.47;;
68653;SDS011;55636;51.108;13.622;2023-08-07T02:30:01;2.70;;;2.50;;
68653;SDS011;55636;51.108;13.622;2023-08-07T02:31:05;4.43;;;2.40;;
68653;SDS011;55636;51.108;13.622;2023-08-07T02:32:08;3.30;;;2.30;;
68653;SDS011;55636;51.108;13.622;2023-08-07T02:33:10;2.70;;;2.50;;
68653;SDS011;55636;51.108;13.622;2023-08-07T02:34:13;4.90;;;2.63;;
68653;SDS011;55636;51.108;13.622;2023-08-07T02:35:15;2.60;;;2.40;;
68653;SDS011;55636;51.108;13.622;2023-08-07T02:36:18;2.40;;;2.20;;
68653;SDS011;55636;51.108;13.622;2023-08-07T02:37:21;2.55;;;2.33;;
68653;SDS011;55636;51.108;13.622;2023-08-07T02:38:24;3.03;;;2.67;;
68653;SDS011;55636;51.108;13.622;2023-08-07T02:39:27;2.50;;;2.30;;
68653;SDS011;55636;51.108;13.622;2023-08-07T02:40:30;2.47;;;2.28;;
68653;SDS011;55636;51.108;13.622;2023-08-07T02:41:32;5.35;;;2.60;;
68653;SDS011;55636;51.108;13.622;2023-08-07T02:42:35;3.97;;;2.47;;
68653;SDS011;55636;51.108;13.622;2023-08-07T02:43:37;2.30;;;2.17;;
68653;SDS011;55636;51.108;13.622;2023-08-07T02:44:40;2.60;;;2.40;;
68653;SDS011;55636;51.108;13.622;2023-08-07T02:45:42;2.50;;;2.30;;
68653;SDS011;55636;51.108;13.622;2023-08-07T02:46:45;2.95;;;2.50;;
68653;SDS011;55636;51.108;13.622;2023-08-07T02:47:47;2.95;;;2.67;;
68653;SDS011;55636;51.108;13.622;2023-08-07T02:48:50;2.83;;;2.40;;
68653;SDS011;55636;51.108;13.622;2023-08-07T02:49:52;2.88;;;2.33;;
68653;SDS011;55636;51.108;13.622;2023-08-07T02:50:54;2.33;;;2.20;;
68653;SDS011;55636;51.108;13.622;2023-08-07T02:51:57;3.47;;;2.58;;
68653;SDS011;55636;51.108;13.622;2023-08-07T02:53:00;2.63;;;2.42;;
68653;SDS011;55636;51.108;13.622;2023-08-07T02:54:03;3.53;;;2.47;;
68653;SDS011;55636;51.108;13.622;2023-08-07T02:55:05;2.90;;;2.60;;
68653;SDS011;55636;51.108;13.622;2023-08-07T02:56:08;2.67;;;2.47;;
68653;SDS011;55636;51.108;13.622;2023-08-07T02:57:11;2.60;;;2.40;;
68653;SDS011;55636;51.108;13.622;2023-08-07T02:58:13;2.58;;;2.42;;
68653;SDS011;55636;51.108;13.622;2023-08-07T02:59:15;2.60;;;2.40;;
68653;SDS011;55636;51.108;13.622;2023-08-07T03:00:18;2.88;;;2.60;;
68653;SDS011;55636;51.108;13.622;2023-08-07T03:01:24;2.60;;;2.10;;
68653;SDS011;55636;51.108;13.622;2023-08-07T03:02:26;2.20;;;2.10;;
68653;SDS011;55636;51.108;13.622;2023-08-07T03:03:29;2.90;;;2.25;;
68653;SDS011;55636;51.108;13.622;2023-08-07T03:04:31;4.45;;;2.58;;
68653;SDS011;55636;51.108;13.622;2023-08-07T03:05:33;2.42;;;2.22;;
68653;SDS011;55636;51.108;13.622;2023-08-07T03:06:36;2.40;;;2.20;;
68653;SDS011;55636;51.108;13.622;2023-08-07T03:07:38;3.45;;;1.70;;
68653;SDS011;55636;51.108;13.622;2023-08-07T03:08:41;1.95;;;1.70;;
68653;SDS011;55636;51.108;13.622;2023-08-07T03:09:45;1.70;;;1.60;;
68653;SDS011;55636;51.108;13.622;2023-08-07T03:10:52;2.75;;;1.70;;
68653;SDS011;55636;51.108;13.622;2023-08-07T03:11:58;1.98;;;1.80;;
68653;SDS011;55636;51.108;13.622;2023-08-07T03:13:05;1.85;;;1.75;;
68653;SDS011;55636;51.108;13.622;2023-08-07T03:14:08;1.90;;;1.80;;
68653;SDS011;55636;51.108;13.622;2023-08-07T03:15:10;2.10;;;1.90;;
68653;SDS011;55636;51.108;13.622;2023-08-07T03:16:13;1.85;;;1.75;;
68653;SDS011;55636;51.108;13.622;2023-08-07T03:17:15;2.08;;;1.88;;
68653;SDS011;55636;51.108;13.622;2023-08-07T03:18:18;2.15;;;1.95;;
68653;SDS011;55636;51.108;13.622;2023-08-07T03:19:21;1.98;;;1.88;;
68653;SDS011;55636;51.108;13.622;2023-08-07T03:20:24;2.83;;;1.90;;
68653;SDS011;55636;51.108;13.622;2023-08-07T03:21:26;2.00;;;1.80;;
68653;SDS011;55636;51.108;13.622;2023-08-07T03:22:29;2.10;;;1.90;;
68653;SDS011;55636;51.108;13.622;2023-08-07T03:23:31;2.40;;;1.92;;
68653;SDS011;55636;51.108;13.622;2023-08-07T03:24:36;2.00;;;1.80;;
68653;SDS011;55636;51.108;13.622;2023-08-07T03:25:39;2.58;;;1.90;;
68653;SDS011;55636;51.108;13.622;2023-08-07T03:26:41;3.03;;;2.10;;
68653;SDS011;55636;51.108;13.622;2023-08-07T03:27:44;2.67;;;2.00;;
68653;SDS011;55636;51.108;13.622;2023-08-07T03:28:46;2.70;;;1.83;;
68653;SDS011;55636;51.108;13.622;2023-08-07T03:29:51;2.28;;;2.05;;
68653;SDS011;55636;51.108;13.622;2023-08-07T03:30:53;2.35;;;2.00;;
68653;SDS011;55636;51.108;13.622;2023-08-07T03:31:56;2.13;;;1.92;;
68653;SDS011;55636;51.108;13.622;2023-08-07T03:32:59;2.85;;;1.98;;
68653;SDS011;55636;51.108;13.622;2023-08-07T03:34:03;6.50;;;2.17;;
68653;SDS011;55636;51.108;13.622;2023-08-07T03:35:05;2.25;;;1.90;;
68653;SDS011;55636;51.108;13.622;2023-08-07T03:36:09;3.17;;;2.00;;
68653;SDS011;55636;51.108;13.622;2023-08-07T03:37:12;2.03;;;1.83;;
68653;SDS011;55636;51.108;13.622;2023-08-07T03:38:14;3.00;;;2.10;;
68653;SDS011;55636;51.108;13.622;2023-08-07T03:39:16;4.25;;;2.03;;
68653;SDS011;55636;51.108;13.622;2023-08-07T03:40:19;2.10;;;1.90;;
68653;SDS011;55636;51.108;13.622;2023-08-07T03:41:21;2.58;;;2.17;;
68653;SDS011;55636;51.108;13.622;2023-08-07T03:42:24;2.00;;;1.90;;
68653;SDS011;55636;51.108;13.622;2023-08-07T03:43:26;3.28;;;2.20;;
68653;SDS011;55636;51.108;13.622;2023-08-07T03:44:29;2.10;;;1.90;;
68653;SDS011;55636;51.108;13.622;2023-08-07T03:45:31;2.22;;;1.90;;
68653;SDS011;55636;51.108;13.622;2023-08-07T03:46:33;2.78;;;1.90;;
68653;SDS011;55636;51.108;13.622;2023-08-07T03:47:36;2.15;;;1.95;;
68653;SDS011;55636;51.108;13.622;2023-08-07T03:48:39;2.10;;;1.90;;
68653;SDS011;55636;51.108;13.622;2023-08-07T03:49:42;2.55;;;2.17;;
68653;SDS011;55636;51.108;13.622;2023-08-07T03:50:46;3.35;;;1.95;;
68653;SDS011;55636;51.108;13.622;2023-08-07T03:51:48;2.67;;;2.00;;
68653;SDS011;55636;51.108;13.622;2023-08-07T03:52:51;2.42;;;2.22;;
68653;SDS011;55636;51.108;13.622;2023-08-07T03:53:54;3.38;;;1.70;;
68653;SDS011;55636;51.108;13.622;2023-08-07T03:54:57;3.03;;;2.00;;
68653;SDS011;55636;51.108;13.622;2023-08-07T03:55:59;2.90;;;2.35;;
68653;SDS011;55636;51.108;13.622;2023-08-07T03:57:03;2.40;;;2.20;;
68653;SDS011;55636;51.108;13.622;2023-08-07T03:58:06;2.40;;;2.20;;
68653;SDS011;55636;51.108;13.622;2023-08-07T03:59:08;2.38;;;2.15;;
68653;SDS011;55636;51.108;13.622;2023-08-07T04:00:11;2.92;;;2.00;;
68653;SDS011;55636;51.108;13.622;2023-08-07T04:01:14;2.10;;;1.90;;
68653;SDS011;55636;51.108;13.622;2023-08-07T04:02:17;2.63;;;2.25;;
68653;SDS011;55636;51.108;13.622;2023-08-07T04:03:19;3.25;;;2.40;;
68653;SDS011;55636;51.108;13.622;2023-08-07T04:04:22;2.60;;;2.40;;
68653;SDS011;55636;51.108;13.622;2023-08-07T04:05:25;2.50;;;2.30;;
68653;SDS011;55636;51.108;13.622;2023-08-07T04:06:27;2.58;;;2.38;;
68653;SDS011;55636;51.108;13.622;2023-08-07T04:07:31;2.50;;;2.30;;
68653;SDS011;55636;51.108;13.622;2023-08-07T04:08:33;2.45;;;2.25;;
68653;SDS011;55636;51.108;13.622;2023-08-07T04:09:35;2.50;;;2.30;;
68653;SDS011;55636;51.108;13.622;2023-08-07T04:10:38;2.40;;;2.17;;
68653;SDS011;55636;51.108;13.622;2023-08-07T04:11:40;2.85;;;2.55;;
68653;SDS011;55636;51.108;13.622;2023-08-07T04:12:43;3.17;;;2.40;;
68653;SDS011;55636;51.108;13.622;2023-08-07T04:13:45;3.05;;;2.80;;
68653;SDS011;55636;51.108;13.622;2023-08-07T04:14:48;2.75;;;2.40;;
68653;SDS011;55636;51.108;13.622;2023-08-07T04:15:50;2.83;;;2.47;;
68653;SDS011;55636;51.108;13.622;2023-08-07T04:16:53;4.35;;;2.97;;
68653;SDS011;55636;51.108;13.622;2023-08-07T04:17:56;3.28;;;2.80;;
68653;SDS011;55636;51.108;13.622;2023-08-07T04:18:58;3.60;;;3.30;;
68653;SDS011;55636;51.108;13.622;2023-08-07T04:20:01;3.47;;;2.92;;
68653;SDS011;55636;51.108;13.622;2023-08-07T04:21:05;3.05;;;2.80;;
68653;SDS011;55636;51.108;13.622;2023-08-07T04:22:08;3.45;;;3.15;;
68653;SDS011;55636;51.108;13.622;2023-08-07T04:23:11;3.88;;;2.88;;
68653;SDS011;55636;51.108;13.622;2023-08-07T04:24:13;3.97;;;3.00;;
68653;SDS011;55636;51.108;13.622;2023-08-07T04:25:15;3.30;;;3.00;;
68653;SDS011;55636;51.108;13.622;2023-08-07T04:26:18;3.70;;;2.97;;
68653;SDS011;55636;51.108;13.622;2023-08-07T04:27:21;3.45;;;3.10;;
68653;SDS011;55636;51.108;13.622;2023-08-07T04:28:23;3.85;;;3.08;;
68653;SDS011;55636;51.108;13.622;2023-08-07T04:29:26;3.80;;;3.17;;
68653;SDS011;55636;51.108;13.622;2023-08-07T04:30:28;4.03;;;3.45;;
68653;SDS011;55636;51.108;13.622;2023-08-07T04:31:30;3.38;;;3.13;;
68653;SDS011;55636;51.108;13.622;2023-08-07T04:32:33;4.80;;;3.47;;
68653;SDS011;55636;51.108;13.622;2023-08-07T04:33:35;3.60;;;3.30;;
68653;SDS011;55636;51.108;13.622;2023-08-07T04:34:38;3.38;;;3.10;;
68653;SDS011;55636;51.108;13.622;2023-08-07T04:35:40;4.40;;;3.38;;
68653;SDS011;55636;51.108;13.622;2023-08-07T04:36:43;3.40;;;3.10;;
68653;SDS011;55636;51.108;13.622;2023-08-07T04:37:45;3.90;;;3.30;;
68653;SDS011;55636;51.108;13.622;2023-08-07T04:38:47;4.45;;;3.42;;
68653;SDS011;55636;51.108;13.622;2023-08-07T04:39:50;3.65;;;3.35;;
68653;SDS011;55636;51.108;13.622;2023-08-07T04:40:52;4.15;;;3.50;;
68653;SDS011;55636;51.108;13.622;2023-08-07T04:41:55;4.03;;;3.50;;
68653;SDS011;55636;51.108;13.622;2023-08-07T04:42:59;3.78;;;3.38;;
68653;SDS011;55636;51.108;13.622;2023-08-07T04:44:01;4.30;;;3.90;;
68653;SDS011;55636;51.108;13.622;2023-08-07T04:45:03;4.03;;;3.63;;
68653;SDS011;55636;51.108;13.622;2023-08-07T04:46:06;4.68;;;3.83;;
68653;SDS011;55636;51.108;13.622;2023-08-07T04:47:09;4.20;;;3.80;;
68653;SDS011;55636;51.108;13.622;2023-08-07T04:48:11;4.15;;;3.45;;
68653;SDS011;55636;51.108;13.622;2023-08-07T04:49:13;4.22;;;3.72;;
68653;SDS011;55636;51.108;13.622;2023-08-07T04:50:16;3.92;;;3.63;;
68653;SDS011;55636;51.108;13.622;2023-08-07T04:51:18;4.50;;;3.95;;
68653;SDS011;55636;51.108;13.622;2023-08-07T04:52:21;4.13;;;3.80;;
68653;SDS011;55636;51.108;13.622;2023-08-07T04:53:28;5.80;;;3.80;;
68653;SDS011;55636;51.108;13.622;2023-08-07T04:54:31;4.00;;;3.58;;
68653;SDS011;55636;51.108;13.622;2023-08-07T04:55:33;4.40;;;4.00;;
68653;SDS011;55636;51.108;13.622;2023-08-07T04:56:36;3.80;;;3.50;;
68653;SDS011;55636;51.108;13.622;2023-08-07T04:57:38;3.92;;;3.63;;
68653;SDS011;55636;51.108;13.622;2023-08-07T04:58:41;4.55;;;3.78;;
68653;SDS011;55636;51.108;13.622;2023-08-07T04:59:43;4.50;;;4.10;;
68653;SDS011;55636;51.108;13.622;2023-08-07T05:00:46;4.57;;;3.78;;
68653;SDS011;55636;51.108;13.622;2023-08-07T05:01:48;7.80;;;4.00;;
68653;SDS011;55636;51.108;13.622;2023-08-07T05:02:51;4.18;;;3.78;;
68653;SDS011;55636;51.108;13.622;2023-08-07T05:03:53;5.28;;;3.97;;
68653;SDS011;55636;51.108;13.622;2023-08-07T05:04:56;3.90;;;3.55;;
68653;SDS011;55636;51.108;13.622;2023-08-07T05:05:59;5.13;;;4.07;;
68653;SDS011;55636;51.108;13.622;2023-08-07T05:07:04;3.90;;;3.60;;
68653;SDS011;55636;51.108;13.622;2023-08-07T05:08:06;4.43;;;3.88;;
68653;SDS011;55636;51.108;13.622;2023-08-07T05:09:09;4.60;;;3.85;;
68653;SDS011;55636;51.108;13.622;2023-08-07T05:10:11;4.50;;;3.58;;
68653;SDS011;55636;51.108;13.622;2023-08-07T05:11:13;4.38;;;3.95;;
68653;SDS011;55636;51.108;13.622;2023-08-07T05:12:17;4.63;;;3.80;;
68653;SDS011;55636;51.108;13.622;2023-08-07T05:13:19;4.65;;;3.80;;
68653;SDS011;55636;51.108;13.622;2023-08-07T05:14:22;4.47;;;4.07;;
68653;SDS011;55636;51.108;13.622;2023-08-07T05:15:24;4.28;;;3.85;;
68653;SDS011;55636;51.108;13.622;2023-08-07T05:16:27;4.32;;;3.75;;
68653;SDS011;55636;51.108;13.622;2023-08-07T05:17:31;3.65;;;3.35;;
68653;SDS011;55636;51.108;13.622;2023-08-07T05:18:33;4.50;;;4.10;;
68653;SDS011;55636;51.108;13.622;2023-08-07T05:19:36;3.95;;;3.60;;
68653;SDS011;55636;51.108;13.622;2023-08-07T05:20:38;5.25;;;3.88;;
68653;SDS011;55636;51.108;13.622;2023-08-07T05:21:41;4.10;;;3.70;;
68653;SDS011;55636;51.108;13.622;2023-08-07T05:22:43;5.95;;;3.70;;
68653;SDS011;55636;51.108;13.622;2023-08-07T05:23:47;3.90;;;3.50;;
68653;SDS011;55636;51.108;13.622;2023-08-07T05:24:49;3.90;;;3.13;;
68653;SDS011;55636;51.108;13.622;2023-08-07T05:25:52;4.10;;;3.70;;
68653;SDS011;55636;51.108;13.622;2023-08-07T05:26:54;3.75;;;3.38;;
68653;SDS011;55636;51.108;13.622;2023-08-07T05:27:57;4.22;;;3.35;;
68653;SDS011;55636;51.108;13.622;2023-08-07T05:28:59;3.40;;;3.10;;
68653;SDS011;55636;51.108;13.622;2023-08-07T05:30:02;3.47;;;3.17;;
68653;SDS011;55636;51.108;13.622;2023-08-07T05:31:04;4.68;;;3.45;;
68653;SDS011;55636;51.108;13.622;2023-08-07T05:32:07;3.70;;;3.20;;
68653;SDS011;55636;51.108;13.622;2023-08-07T05:33:09;3.85;;;3.28;;
68653;SDS011;55636;51.108;13.622;2023-08-07T05:34:12;3.80;;;2.97;;
68653;SDS011;55636;51.108;13.622;2023-08-07T05:35:14;3.60;;;3.30;;
68653;SDS011;55636;51.108;13.622;2023-08-07T05:36:16;3.72;;;3.42;;
68653;SDS011;55636;51.108;13.622;2023-08-07T05:37:19;3.60;;;3.30;;
68653;SDS011;55636;51.108;13.622;2023-08-07T05:38:22;3.80;;;3.50;;
68653;SDS011;55636;51.108;13.622;2023-08-07T05:39:24;4.88;;;3.17;;
68653;SDS011;55636;51.108;13.622;2023-08-07T05:40:27;4.32;;;3.08;;
68653;SDS011;55636;51.108;13.622;2023-08-07T05:41:29;3.67;;;3.30;;
68653;SDS011;55636;51.108;13.622;2023-08-07T05:42:32;4.05;;;3.30;;
68653;SDS011;55636;51.108;13.622;2023-08-07T05:43:34;3.70;;;3.13;;
68653;SDS011;55636;51.108;13.622;2023-08-07T05:44:36;3.40;;;3.10;;
68653;SDS011;55636;51.108;13.622;2023-08-07T05:45:39;3.22;;;2.92;;
68653;SDS011;55636;51.108;13.622;2023-08-07T05:46:41;3.22;;;2.92;;
68653;SDS011;55636;51.108;13.622;2023-08-07T05:47:44;2.97;;;2.78;;
68653;SDS011;55636;51.108;13.622;2023-08-07T05:48:47;3.35;;;2.97;;
68653;SDS011;55636;51.108;13.622;2023-08-07T05:49:49;3.78;;;2.97;;
68653;SDS011;55636;51.108;13.622;2023-08-07T05:50:52;3.88;;;2.83;;
68653;SDS011;55636;51.108;13.622;2023-08-07T05:51:55;3.53;;;3.15;;
68653;SDS011;55636;51.108;13.622;2023-08-07T05:52:58;3.10;;;2.80;;
68653;SDS011;55636;51.108;13.622;2023-08-07T05:54:00;3.65;;;3.05;;
68653;SDS011;55636;51.108;13.622;2023-08-07T05:55:03;3.17;;;2.90;;
68653;SDS011;55636;51.108;13.622;2023-08-07T05:56:08;3.10;;;2.70;;
68653;SDS011;55636;51.108;13.622;2023-08-07T05:57:11;3.80;;;2.97;;
68653;SDS011;55636;51.108;13.622;2023-08-07T05:58:13;3.20;;;2.90;;
68653;SDS011;55636;51.108;13.622;2023-08-07T05:59:17;2.95;;;2.75;;
68653;SDS011;55636;51.108;13.622;2023-08-07T06:00:19;5.70;;;2.95;;
68653;SDS011;55636;51.108;13.622;2023-08-07T06:01:24;2.97;;;2.78;;
68653;SDS011;55636;51.108;13.622;2023-08-07T06:02:32;3.40;;;2.80;;
68653;SDS011;55636;51.108;13.622;2023-08-07T06:03:35;2.75;;;2.55;;
68653;SDS011;55636;51.108;13.622;2023-08-07T06:04:37;3.83;;;3.08;;
68653;SDS011;55636;51.108;13.622;2023-08-07T06:05:40;3.03;;;2.78;;
68653;SDS011;55636;51.108;13.622;2023-08-07T06:06:42;3.22;;;2.85;;
68653;SDS011;55636;51.108;13.622;2023-08-07T06:07:45;3.47;;;3.00;;
68653;SDS011;55636;51.108;13.622;2023-08-07T06:08:48;3.05;;;2.80;;
68653;SDS011;55636;51.108;13.622;2023-08-07T06:09:50;2.97;;;2.67;;
68653;SDS011;55636;51.108;13.622;2023-08-07T06:10:53;3.17;;;2.70;;
68653;SDS011;55636;51.108;13.622;2023-08-07T06:11:56;3.10;;;2.80;;
68653;SDS011;55636;51.108;13.622;2023-08-07T06:13:00;3.00;;;2.67;;
68653;SDS011;55636;51.108;13.622;2023-08-07T06:14:03;2.95;;;2.67;;
68653;SDS011;55636;51.108;13.622;2023-08-07T06:15:05;2.85;;;2.65;;
68653;SDS011;55636;51.108;13.622;2023-08-07T06:16:08;2.70;;;2.50;;